createdAt,value
2019-05-02T00:03:35.978Z,98.53
2019-05-02T00:13:40.178Z,95.92
2019-05-02T00:23:42.781Z,94.53
2019-05-02T00:33:47.472Z,95.78
2019-05-02T00:43:50.770Z,95.01
2019-05-02T00:53:54.978Z,96.41
2019-05-02T01:04:05.000Z,99.78
2019-05-02T01:14:11.296Z,100.00
2019-05-02T01:24:14.427Z,100.00
2019-05-02T01:34:19.940Z,100.00
2019-05-02T01:44:24.204Z,99.17
2019-05-02T01:54:27.063Z,98.90
2019-05-02T02:04:30.315Z,100.00
2019-05-02T02:14:32.870Z,98.71
2019-05-02T02:24:40.312Z,97.72
2019-05-02T02:34:45.003Z,97.18
2019-05-02T02:44:50.418Z,96.82
2019-05-02T02:54:54.638Z,97.24
2019-05-02T03:05:04.077Z,97.63
2019-05-02T03:15:13.574Z,96.76
2019-05-02T03:25:27.003Z,95.78
2019-05-02T03:35:40.634Z,95.26
2019-05-02T03:45:32.285Z,94.92
2019-05-02T03:55:36.156Z,94.83
2019-05-02T04:05:40.606Z,94.38
2019-05-02T04:15:44.378Z,92.40
2019-05-02T04:25:49.293Z,89.11
2019-05-02T04:35:51.981Z,83.65
2019-05-02T04:45:59.731Z,85.25
2019-05-02T04:56:06.659Z,80.14
2019-05-02T05:06:10.767Z,73.37
2019-05-02T05:16:15.528Z,72.00
2019-05-02T05:26:17.482Z,71.41
2019-05-02T05:36:29.233Z,66.01
2019-05-02T05:46:28.056Z,61.14
2019-05-02T05:56:32.460Z,61.05
2019-05-02T06:06:37.789Z,57.89
2019-05-02T06:16:41.242Z,54.74
2019-05-02T06:26:44.796Z,51.67
2019-05-02T06:36:49.427Z,51.88
2019-05-02T06:46:52.001Z,47.17
2019-05-02T06:56:55.555Z,45.89
2019-05-02T07:06:59.995Z,40.18
2019-05-02T07:17:17.608Z,40.11
2019-05-02T07:27:21.138Z,40.83
2019-05-02T07:37:23.697Z,40.09
2019-05-02T07:47:28.831Z,38.82
2019-05-02T07:57:32.413Z,38.28
2019-05-02T08:07:38.002Z,36.19
2019-05-02T08:17:40.679Z,31.36
2019-05-02T08:27:49.589Z,30.26
2019-05-02T08:37:52.197Z,34.54
2019-05-02T08:47:55.481Z,30.78
2019-05-02T08:58:00.370Z,31.65
2019-05-02T09:08:04.654Z,31.77
2019-05-02T09:18:07.235Z,32.78
2019-05-02T09:28:12.515Z,31.23
2019-05-02T09:38:16.397Z,31.67
2019-05-02T09:48:22.850Z,30.58
2019-05-02T09:58:25.767Z,29.00
2019-05-02T10:08:28.460Z,26.23
2019-05-02T10:18:32.919Z,26.52
2019-05-02T10:28:35.800Z,26.68
2019-05-02T10:38:39.387Z,25.76
2019-05-02T10:48:43.995Z,24.90
2019-05-02T10:58:46.827Z,28.95
2019-05-02T11:08:49.448Z,31.18
2019-05-02T11:18:58.092Z,29.74
2019-05-02T11:29:02.980Z,27.62
2019-05-02T11:39:19.229Z,26.69
2019-05-02T11:49:15.084Z,42.96
2019-05-02T11:59:22.710Z,38.08
2019-05-02T12:09:24.376Z,28.30
2019-05-02T12:19:26.936Z,37.89
2019-05-02T12:29:29.593Z,36.12
2019-05-02T12:39:33.151Z,38.65
2019-05-02T12:49:43.409Z,37.30
2019-05-02T12:59:46.651Z,34.69
2019-05-02T13:09:49.820Z,33.56
2019-05-02T13:20:00.623Z,33.36
2019-05-02T13:30:03.387Z,33.93
2019-05-02T13:40:22.614Z,39.53
2019-05-02T13:50:27.096Z,38.24
2019-05-02T14:00:38.621Z,36.87
2019-05-02T14:10:44.681Z,36.19
2019-05-02T14:20:48.038Z,38.15
2019-05-02T14:30:52.371Z,38.60
2019-05-02T14:41:03.078Z,40.65
2019-05-02T14:51:06.643Z,40.41
2019-05-02T15:01:09.925Z,39.80
2019-05-02T15:11:16.017Z,39.84
2019-05-02T15:21:22.874Z,42.37
2019-05-02T15:31:33.734Z,41.40
2019-05-02T15:41:39.861Z,42.67
2019-05-02T15:51:43.647Z,43.16
2019-05-02T16:01:52.507Z,43.96
2019-05-02T16:11:56.879Z,45.26
2019-05-02T16:32:37.892Z,47.83
2019-05-02T16:42:43.085Z,48.79
2019-05-02T16:52:47.321Z,51.15
2019-05-02T17:02:50.398Z,53.01
2019-05-02T17:12:58.651Z,54.73
2019-05-02T17:23:06.995Z,56.89
2019-05-02T17:33:12.025Z,58.97
2019-05-02T17:43:15.725Z,60.05
2019-05-02T17:53:18.530Z,61.11
2019-05-02T18:03:24.179Z,60.93
2019-05-02T18:13:29.102Z,60.43
2019-05-02T18:23:32.983Z,59.81
2019-05-02T18:33:41.325Z,60.63
2019-05-02T18:43:45.169Z,60.62
2019-05-02T18:53:47.920Z,60.61
2019-05-02T19:03:56.247Z,60.43
2019-05-02T19:13:57.953Z,61.13
2019-05-02T19:24:02.313Z,58.60
2019-05-02T19:34:06.178Z,58.09
2019-05-02T19:44:09.065Z,59.19
2019-05-02T19:54:12.593Z,59.74
2019-05-02T20:04:19.217Z,60.89
2019-05-02T20:14:22.525Z,62.46
2019-05-02T20:24:29.052Z,63.45
2019-05-02T20:34:32.997Z,64.76
2019-05-02T20:44:37.959Z,66.02
2019-05-02T20:54:42.666Z,68.04
2019-05-02T21:04:45.605Z,66.75
2019-05-02T21:14:51.986Z,65.42
2019-05-02T21:24:55.758Z,65.58
2019-05-02T21:35:02.637Z,68.53
2019-05-02T21:45:08.687Z,65.77
2019-05-02T21:55:14.962Z,65.88
2019-05-02T22:05:17.582Z,66.53
2019-05-02T22:15:21.982Z,66.29
2019-05-02T22:25:27.689Z,67.83
2019-05-02T22:35:31.178Z,71.12
2019-05-02T22:45:35.603Z,73.14
2019-05-02T22:55:38.153Z,74.89
2019-05-02T23:05:42.166Z,80.24
2019-05-02T23:15:45.046Z,79.68
2019-05-02T23:36:23.893Z,81.92
2019-05-02T23:46:26.648Z,82.86
2019-05-02T23:56:32.277Z,82.76
